sensor_id;sensor_type;location;lat;lon;timestamp;pressure;altitude;pressure_sealevel;temperature;humidity
74552;BME280;63025;55.472;38.432;2023-03-01T00:01:34;99402.31;;;-5.49;60.42
74552;BME280;63025;55.472;38.432;2023-03-01T00:04:00;99398.66;;;-5.58;61.17
74552;BME280;63025;55.472;38.432;2023-03-01T00:06:26;99400.00;;;-5.64;60.64
74552;BME280;63025;55.472;38.432;2023-03-01T00:08:53;99396.19;;;-5.71;61.03
74552;BME280;63025;55.472;38.432;2023-03-01T00:11:23;99397.66;;;-5.78;61.78
74552;BME280;63025;55.472;38.432;2023-03-01T00:13:51;99389.69;;;-5.87;61.33
74552;BME280;63025;55.472;38.432;2023-03-01T00:16:20;99392.84;;;-5.94;62.33
74552;BME280;63025;55.472;38.432;2023-03-01T00:18:46;99391.53;;;-5.99;61.55
74552;BME280;63025;55.472;38.432;2023-03-01T00:21:12;99395.22;;;-6.02;62.02
74552;BME280;63025;55.472;38.432;2023-03-01T00:23:38;99394.66;;;-6.05;62.03
74552;BME280;63025;55.472;38.432;2023-03-01T00:26:10;99391.53;;;-6.10;62.11
74552;BME280;63025;55.472;38.432;2023-03-01T00:28:39;99385.97;;;-6.17;61.92
74552;BME280;63025;55.472;38.432;2023-03-01T00:31:10;99386.19;;;-6.20;62.17
74552;BME280;63025;55.472;38.432;2023-03-01T00:33:38;99386.69;;;-6.26;62.39
74552;BME280;63025;55.472;38.432;2023-03-01T00:36:05;99381.69;;;-6.29;62.96
74552;BME280;63025;55.472;38.432;2023-03-01T00:38:35;99376.94;;;-6.35;62.78
74552;BME280;63025;55.472;38.432;2023-03-01T00:41:05;99381.56;;;-6.39;62.74
74552;BME280;63025;55.472;38.432;2023-03-01T00:43:32;99365.66;;;-6.47;62.99
74552;BME280;63025;55.472;38.432;2023-03-01T00:46:08;99373.00;;;-6.52;63.53
74552;BME280;63025;55.472;38.432;2023-03-01T00:48:34;99365.06;;;-6.61;63.49
74552;BME280;63025;55.472;38.432;2023-03-01T00:53:36;99378.47;;;-6.66;63.60
74552;BME280;63025;55.472;38.432;2023-03-01T00:56:03;99381.09;;;-6.66;63.84
74552;BME280;63025;55.472;38.432;2023-03-01T00:58:30;99379.88;;;-6.73;64.01
74552;BME280;63025;55.472;38.432;2023-03-01T01:00:55;99376.69;;;-6.77;64.18
74552;BME280;63025;55.472;38.432;2023-03-01T01:03:21;99378.56;;;-6.79;64.21
74552;BME280;63025;55.472;38.432;2023-03-01T01:05:47;99377.13;;;-6.83;64.11
74552;BME280;63025;55.472;38.432;2023-03-01T01:08:13;99374.88;;;-6.87;64.18
74552;BME280;63025;55.472;38.432;2023-03-01T01:10:39;99380.22;;;-6.89;64.28
74552;BME280;63025;55.472;38.432;2023-03-01T01:13:04;99374.75;;;-6.97;64.70
74552;BME280;63025;55.472;38.432;2023-03-01T01:15:34;99376.41;;;-6.96;64.26
74552;BME280;63025;55.472;38.432;2023-03-01T01:18:01;99375.19;;;-7.03;64.34
74552;BME280;63025;55.472;38.432;2023-03-01T01:20:27;99377.09;;;-7.05;64.67
74552;BME280;63025;55.472;38.432;2023-03-01T01:22:53;99386.22;;;-7.11;64.49
74552;BME280;63025;55.472;38.432;2023-03-01T01:25:19;99380.63;;;-7.17;65.21
74552;BME280;63025;55.472;38.432;2023-03-01T01:27:45;99381.78;;;-7.21;64.74
74552;BME280;63025;55.472;38.432;2023-03-01T01:30:11;99389.00;;;-7.25;64.48
74552;BME280;63025;55.472;38.432;2023-03-01T01:32:37;99385.34;;;-7.22;65.45
74552;BME280;63025;55.472;38.432;2023-03-01T01:35:03;99384.63;;;-7.24;65.16
74552;BME280;63025;55.472;38.432;2023-03-01T01:37:29;99388.91;;;-7.23;65.05
74552;BME280;63025;55.472;38.432;2023-03-01T01:39:59;99382.13;;;-7.26;65.26
74552;BME280;63025;55.472;38.432;2023-03-01T01:42:26;99377.03;;;-7.27;65.22
74552;BME280;63025;55.472;38.432;2023-03-01T01:48:00;99376.44;;;-7.31;65.14
74552;BME280;63025;55.472;38.432;2023-03-01T01:50:28;99375.81;;;-7.34;65.37
74552;BME280;63025;55.472;38.432;2023-03-01T01:53:15;99373.31;;;-7.36;65.41
74552;BME280;63025;55.472;38.432;2023-03-01T01:55:48;99375.22;;;-7.38;65.74
74552;BME280;63025;55.472;38.432;2023-03-01T01:58:19;99372.00;;;-7.42;65.49
74552;BME280;63025;55.472;38.432;2023-03-01T02:00:47;99370.31;;;-7.43;65.46
74552;BME280;63025;55.472;38.432;2023-03-01T02:03:18;99373.50;;;-7.50;65.60
74552;BME280;63025;55.472;38.432;2023-03-01T02:08:33;99362.44;;;-7.54;65.96
74552;BME280;63025;55.472;38.432;2023-03-01T02:11:01;99373.81;;;-7.55;65.83
74552;BME280;63025;55.472;38.432;2023-03-01T02:13:30;99373.72;;;-7.53;65.96
74552;BME280;63025;55.472;38.432;2023-03-01T02:15:56;99370.38;;;-7.55;66.01
74552;BME280;63025;55.472;38.432;2023-03-01T02:18:23;99372.16;;;-7.56;65.99
74552;BME280;63025;55.472;38.432;2023-03-01T02:23:18;99379.97;;;-7.56;65.89
74552;BME280;63025;55.472;38.432;2023-03-01T02:25:47;99372.06;;;-7.54;65.99
74552;BME280;63025;55.472;38.432;2023-03-01T02:30:45;99379.97;;;-7.56;66.06
74552;BME280;63025;55.472;38.432;2023-03-01T02:33:31;99378.94;;;-7.53;65.83
74552;BME280;63025;55.472;38.432;2023-03-01T02:36:00;99386.97;;;-7.56;65.71
74552;BME280;63025;55.472;38.432;2023-03-01T02:38:27;99375.94;;;-7.60;65.57
74552;BME280;63025;55.472;38.432;2023-03-01T02:40:54;99379.72;;;-7.64;65.93
74552;BME280;63025;55.472;38.432;2023-03-01T02:43:24;99377.63;;;-7.59;65.55
74552;BME280;63025;55.472;38.432;2023-03-01T02:45:52;99376.22;;;-7.52;66.16
74552;BME280;63025;55.472;38.432;2023-03-01T02:48:19;99369.94;;;-7.49;65.96
74552;BME280;63025;55.472;38.432;2023-03-01T02:51:11;99381.72;;;-7.44;65.84
74552;BME280;63025;55.472;38.432;2023-03-01T02:56:20;99375.81;;;-7.34;65.85
74552;BME280;63025;55.472;38.432;2023-03-01T02:58:46;99378.81;;;-7.28;65.76
74552;BME280;63025;55.472;38.432;2023-03-01T03:01:20;99376.22;;;-7.28;65.55
74552;BME280;63025;55.472;38.432;2023-03-01T03:03:46;99365.16;;;-7.31;65.72
74552;BME280;63025;55.472;38.432;2023-03-01T03:06:13;99374.13;;;-7.35;66.17
74552;BME280;63025;55.472;38.432;2023-03-01T03:08:39;99379.81;;;-7.42;65.53
74552;BME280;63025;55.472;38.432;2023-03-01T03:11:05;99373.41;;;-7.49;65.92
74552;BME280;63025;55.472;38.432;2023-03-01T03:13:31;99368.59;;;-7.55;66.05
74552;BME280;63025;55.472;38.432;2023-03-01T03:15:58;99380.22;;;-7.59;66.21
74552;BME280;63025;55.472;38.432;2023-03-01T03:18:24;99379.81;;;-7.65;66.04
74552;BME280;63025;55.472;38.432;2023-03-01T03:20:53;99380.88;;;-7.68;66.64
74552;BME280;63025;55.472;38.432;2023-03-01T03:23:20;99384.31;;;-7.67;66.54
74552;BME280;63025;55.472;38.432;2023-03-01T03:25:49;99383.47;;;-7.68;66.70
74552;BME280;63025;55.472;38.432;2023-03-01T03:28:15;99388.47;;;-7.65;66.78
74552;BME280;63025;55.472;38.432;2023-03-01T03:30:41;99388.47;;;-7.65;66.67
74552;BME280;63025;55.472;38.432;2023-03-01T03:33:08;99386.22;;;-7.69;66.62
74552;BME280;63025;55.472;38.432;2023-03-01T03:35:43;99389.88;;;-7.72;66.78
74552;BME280;63025;55.472;38.432;2023-03-01T03:38:12;99382.25;;;-7.75;67.01
74552;BME280;63025;55.472;38.432;2023-03-01T03:40:58;99386.06;;;-7.79;66.87
74552;BME280;63025;55.472;38.432;2023-03-01T03:43:28;99394.09;;;-7.82;66.80
74552;BME280;63025;55.472;38.432;2023-03-01T03:45:54;99388.47;;;-7.89;67.07
74552;BME280;63025;55.472;38.432;2023-03-01T03:48:20;99387.03;;;-7.93;67.48
74552;BME280;63025;55.472;38.432;2023-03-01T03:50:51;99389.75;;;-7.94;67.61
74552;BME280;63025;55.472;38.432;2023-03-01T03:53:18;99388.06;;;-7.95;67.43
74552;BME280;63025;55.472;38.432;2023-03-01T03:55:44;99400.28;;;-7.96;67.63
74552;BME280;63025;55.472;38.432;2023-03-01T03:58:10;99396.25;;;-8.00;67.77
74552;BME280;63025;55.472;38.432;2023-03-01T04:00:41;99403.53;;;-8.05;67.79
74552;BME280;63025;55.472;38.432;2023-03-01T04:03:08;99406.59;;;-8.11;67.76
74552;BME280;63025;55.472;38.432;2023-03-01T04:05:34;99411.28;;;-8.16;68.28
74552;BME280;63025;55.472;38.432;2023-03-01T04:08:00;99413.03;;;-8.17;68.13
74552;BME280;63025;55.472;38.432;2023-03-01T04:10:41;99413.47;;;-8.23;68.30
74552;BME280;63025;55.472;38.432;2023-03-01T04:13:11;99416.50;;;-8.29;68.61
74552;BME280;63025;55.472;38.432;2023-03-01T04:15:37;99421.00;;;-8.31;68.69
74552;BME280;63025;55.472;38.432;2023-03-01T04:18:03;99415.41;;;-8.37;68.84
74552;BME280;63025;55.472;38.432;2023-03-01T04:20:31;99420.59;;;-8.37;68.54
74552;BME280;63025;55.472;38.432;2023-03-01T04:23:01;99425.81;;;-8.37;68.71
74552;BME280;63025;55.472;38.432;2023-03-01T04:25:41;99425.22;;;-8.41;69.32
74552;BME280;63025;55.472;38.432;2023-03-01T04:28:08;99431.97;;;-8.38;68.83
74552;BME280;63025;55.472;38.432;2023-03-01T04:30:35;99428.53;;;-8.39;69.01
74552;BME280;63025;55.472;38.432;2023-03-01T04:33:05;99421.66;;;-8.40;69.25
74552;BME280;63025;55.472;38.432;2023-03-01T04:35:47;99422.63;;;-8.41;69.12
74552;BME280;63025;55.472;38.432;2023-03-01T04:38:16;99438.13;;;-8.39;69.25
74552;BME280;63025;55.472;38.432;2023-03-01T04:40:42;99441.56;;;-8.39;69.36
74552;BME280;63025;55.472;38.432;2023-03-01T04:43:09;99444.78;;;-8.35;69.62
74552;BME280;63025;55.472;38.432;2023-03-01T04:45:36;99438.28;;;-8.30;69.60
74552;BME280;63025;55.472;38.432;2023-03-01T04:48:03;99438.81;;;-8.25;69.25
74552;BME280;63025;55.472;38.432;2023-03-01T04:50:29;99443.72;;;-8.20;69.09
74552;BME280;63025;55.472;38.432;2023-03-01T04:52:55;99455.47;;;-8.15;69.14
74552;BME280;63025;55.472;38.432;2023-03-01T04:55:25;99456.81;;;-8.09;68.97
74552;BME280;63025;55.472;38.432;2023-03-01T04:57:51;99452.13;;;-8.04;68.85
74552;BME280;63025;55.472;38.432;2023-03-01T05:00:18;99457.44;;;-7.93;68.69
74552;BME280;63025;55.472;38.432;2023-03-01T05:02:58;99460.13;;;-7.82;68.45
74552;BME280;63025;55.472;38.432;2023-03-01T05:05:31;99454.13;;;-7.71;68.30
74552;BME280;63025;55.472;38.432;2023-03-01T05:08:01;99460.03;;;-7.56;68.19
74552;BME280;63025;55.472;38.432;2023-03-01T05:10:29;99459.66;;;-7.39;67.88
74552;BME280;63025;55.472;38.432;2023-03-01T05:12:56;99460.56;;;-7.27;67.59
74552;BME280;63025;55.472;38.432;2023-03-01T05:15:23;99461.78;;;-7.20;67.19
74552;BME280;63025;55.472;38.432;2023-03-01T05:17:54;99462.56;;;-7.07;66.85
74552;BME280;63025;55.472;38.432;2023-03-01T05:20:21;99455.47;;;-6.94;66.91
74552;BME280;63025;55.472;38.432;2023-03-01T05:22:51;99453.72;;;-6.82;66.85
74552;BME280;63025;55.472;38.432;2023-03-01T05:25:17;99457.91;;;-6.69;66.07
74552;BME280;63025;55.472;38.432;2023-03-01T05:27:43;99468.88;;;-6.52;65.59
74552;BME280;63025;55.472;38.432;2023-03-01T05:30:09;99465.00;;;-6.36;65.50
74552;BME280;63025;55.472;38.432;2023-03-01T05:32:44;99468.19;;;-6.21;65.37
74552;BME280;63025;55.472;38.432;2023-03-01T05:35:12;99462.63;;;-6.05;65.11
74552;BME280;63025;55.472;38.432;2023-03-01T05:37:42;99462.63;;;-5.94;64.67
74552;BME280;63025;55.472;38.432;2023-03-01T05:40:10;99462.34;;;-5.80;63.85
74552;BME280;63025;55.472;38.432;2023-03-01T05:42:42;99473.75;;;-5.70;63.47
74552;BME280;63025;55.472;38.432;2023-03-01T05:45:09;99473.28;;;-5.64;63.53
74552;BME280;63025;55.472;38.432;2023-03-01T05:47:35;99479.09;;;-5.60;62.73
74552;BME280;63025;55.472;38.432;2023-03-01T05:50:02;99479.91;;;-5.60;63.13
74552;BME280;63025;55.472;38.432;2023-03-01T05:52:29;99482.41;;;-5.58;62.92
74552;BME280;63025;55.472;38.432;2023-03-01T05:54:54;99488.25;;;-5.55;62.92
74552;BME280;63025;55.472;38.432;2023-03-01T05:57:20;99489.53;;;-5.49;63.04
74552;BME280;63025;55.472;38.432;2023-03-01T05:59:46;99492.66;;;-5.44;62.93
74552;BME280;63025;55.472;38.432;2023-03-01T06:02:12;99492.25;;;-5.28;62.68
74552;BME280;63025;55.472;38.432;2023-03-01T06:04:37;99481.41;;;-5.24;62.54
74552;BME280;63025;55.472;38.432;2023-03-01T06:07:03;99490.53;;;-5.18;62.14
74552;BME280;63025;55.472;38.432;2023-03-01T06:09:29;99498.97;;;-5.03;61.33
74552;BME280;63025;55.472;38.432;2023-03-01T06:11:55;99493.09;;;-4.96;61.76
74552;BME280;63025;55.472;38.432;2023-03-01T06:14:20;99496.19;;;-4.91;60.91
74552;BME280;63025;55.472;38.432;2023-03-01T06:16:46;99498.88;;;-4.81;61.42
74552;BME280;63025;55.472;38.432;2023-03-01T06:19:12;99499.91;;;-4.72;60.23
74552;BME280;63025;55.472;38.432;2023-03-01T06:21:38;99497.38;;;-4.63;60.83
74552;BME280;63025;55.472;38.432;2023-03-01T06:24:04;99502.44;;;-4.50;60.48
74552;BME280;63025;55.472;38.432;2023-03-01T06:26:31;99509.97;;;-4.36;59.96
74552;BME280;63025;55.472;38.432;2023-03-01T06:28:57;99507.34;;;-4.15;59.77
74552;BME280;63025;55.472;38.432;2023-03-01T06:31:22;99510.75;;;-3.94;59.16
74552;BME280;63025;55.472;38.432;2023-03-01T06:33:48;99508.38;;;-3.76;58.46
74552;BME280;63025;55.472;38.432;2023-03-01T06:36:13;99508.75;;;-3.50;58.24
74552;BME280;63025;55.472;38.432;2023-03-01T06:38:39;99504.69;;;-3.14;58.29
74552;BME280;63025;55.472;38.432;2023-03-01T06:41:06;99509.00;;;-3.04;57.44
74552;BME280;63025;55.472;38.432;2023-03-01T06:43:32;99509.41;;;-2.89;56.39
74552;BME280;63025;55.472;38.432;2023-03-01T06:45:57;99512.47;;;-2.93;56.85
74552;BME280;63025;55.472;38.432;2023-03-01T06:48:23;99494.47;;;-2.98;56.02
74552;BME280;63025;55.472;38.432;2023-03-01T06:50:49;99511.22;;;-2.89;56.28
74552;BME280;63025;55.472;38.432;2023-03-01T06:53:15;99516.06;;;-2.85;56.51
74552;BME280;63025;55.472;38.432;2023-03-01T06:55:41;99508.75;;;-2.81;55.77
74552;BME280;63025;55.472;38.432;2023-03-01T06:58:06;99510.81;;;-2.66;55.84
74552;BME280;63025;55.472;38.432;2023-03-01T07:00:32;99510.78;;;-2.27;55.24
74552;BME280;63025;55.472;38.432;2023-03-01T07:02:59;99517.41;;;-2.13;54.85
74552;BME280;63025;55.472;38.432;2023-03-01T07:05:25;99517.28;;;-2.22;54.62
74552;BME280;63025;55.472;38.432;2023-03-01T07:07:53;99516.72;;;-2.15;54.63
74552;BME280;63025;55.472;38.432;2023-03-01T07:10:19;99521.88;;;-2.33;54.81
74552;BME280;63025;55.472;38.432;2023-03-01T07:12:44;99516.34;;;-2.30;54.47
74552;BME280;63025;55.472;38.432;2023-03-01T07:15:11;99526.25;;;-2.05;54.23
74552;BME280;63025;55.472;38.432;2023-03-01T07:17:37;99530.63;;;-1.86;53.77
74552;BME280;63025;55.472;38.432;2023-03-01T07:20:03;99530.94;;;-1.89;53.17
74552;BME280;63025;55.472;38.432;2023-03-01T07:22:29;99529.25;;;-1.80;53.58
74552;BME280;63025;55.472;38.432;2023-03-01T07:24:55;99528.22;;;-1.33;52.90
74552;BME280;63025;55.472;38.432;2023-03-01T07:27:21;99529.81;;;-1.22;52.49
74552;BME280;63025;55.472;38.432;2023-03-01T07:29:46;99531.16;;;-1.08;52.39
74552;BME280;63025;55.472;38.432;2023-03-01T07:32:12;99529.22;;;-0.71;51.72
74552;BME280;63025;55.472;38.432;2023-03-01T07:34:38;99533.75;;;-0.46;51.80
74552;BME280;63025;55.472;38.432;2023-03-01T07:37:03;99525.31;;;-0.49;51.49
74552;BME280;63025;55.472;38.432;2023-03-01T07:39:29;99525.94;;;-0.73;51.54
74552;BME280;63025;55.472;38.432;2023-03-01T07:41:55;99540.72;;;-1.07;51.17
74552;BME280;63025;55.472;38.432;2023-03-01T07:44:21;99542.72;;;-1.19;52.09
74552;BME280;63025;55.472;38.432;2023-03-01T07:46:47;99546.09;;;-1.27;51.77
74552;BME280;63025;55.472;38.432;2023-03-01T07:49:13;99550.13;;;-1.32;52.11
74552;BME280;63025;55.472;38.432;2023-03-01T07:51:39;99553.56;;;-1.22;52.00
74552;BME280;63025;55.472;38.432;2023-03-01T07:54:05;99553.06;;;-1.08;51.57
74552;BME280;63025;55.472;38.432;2023-03-01T07:56:30;99549.38;;;-1.15;51.40
74552;BME280;63025;55.472;38.432;2023-03-01T07:58:56;99556.78;;;-1.28;51.72
74552;BME280;63025;55.472;38.432;2023-03-01T08:01:24;99557.84;;;-0.94;51.84
74552;BME280;63025;55.472;38.432;2023-03-01T08:03:50;99550.88;;;-0.67;51.31
74552;BME280;63025;55.472;38.432;2023-03-01T08:06:17;99554.13;;;-0.56;51.01
74552;BME280;63025;55.472;38.432;2023-03-01T08:08:43;99558.16;;;-0.61;50.68
74552;BME280;63025;55.472;38.432;2023-03-01T08:11:11;99552.16;;;0.59;50.17
74552;BME280;63025;55.472;38.432;2023-03-01T08:13:37;99551.63;;;0.98;48.87
74552;BME280;63025;55.472;38.432;2023-03-01T08:16:06;99558.91;;;1.54;48.45
74552;BME280;63025;55.472;38.432;2023-03-01T08:18:32;99551.44;;;1.90;46.81
74552;BME280;63025;55.472;38.432;2023-03-01T08:21:17;99565.03;;;2.11;46.45
74552;BME280;63025;55.472;38.432;2023-03-01T08:23:43;99559.97;;;3.04;45.02
74552;BME280;63025;55.472;38.432;2023-03-01T08:26:13;99558.31;;;4.55;42.85
74552;BME280;63025;55.472;38.432;2023-03-01T08:28:39;99546.06;;;4.16;41.92
74552;BME280;63025;55.472;38.432;2023-03-01T08:31:21;99549.09;;;3.53;41.91
74552;BME280;63025;55.472;38.432;2023-03-01T08:33:49;99554.91;;;4.31;40.98
74552;BME280;63025;55.472;38.432;2023-03-01T08:36:21;99560.53;;;4.66;40.02
74552;BME280;63025;55.472;38.432;2023-03-01T08:38:48;99558.44;;;4.09;40.69
74552;BME280;63025;55.472;38.432;2023-03-01T08:41:13;99554.28;;;4.73;39.99
74552;BME280;63025;55.472;38.432;2023-03-01T08:43:40;99555.84;;;4.97;39.42
74552;BME280;63025;55.472;38.432;2023-03-01T08:46:06;99560.41;;;5.75;38.53
74552;BME280;63025;55.472;38.432;2023-03-01T08:48:32;99563.38;;;6.02;37.47
74552;BME280;63025;55.472;38.432;2023-03-01T08:51:16;99568.22;;;5.77;37.58
74552;BME280;63025;55.472;38.432;2023-03-01T08:53:42;99573.38;;;6.00;37.12
74552;BME280;63025;55.472;38.432;2023-03-01T08:56:09;99572.53;;;6.48;36.12
74552;BME280;63025;55.472;38.432;2023-03-01T08:58:35;99571.56;;;6.84;35.69
74552;BME280;63025;55.472;38.432;2023-03-01T09:01:07;99571.38;;;6.57;35.75
74552;BME280;63025;55.472;38.432;2023-03-01T09:03:33;99569.34;;;6.59;35.92
74552;BME280;63025;55.472;38.432;2023-03-01T09:06:02;99569.81;;;5.93;36.17
74552;BME280;63025;55.472;38.432;2023-03-01T09:08:29;99564.84;;;4.96;36.81
74552;BME280;63025;55.472;38.432;2023-03-01T09:10:55;99576.81;;;5.22;37.45
74552;BME280;63025;55.472;38.432;2023-03-01T09:13:21;99566.94;;;5.01;37.44
74552;BME280;63025;55.472;38.432;2023-03-01T09:15:50;99556.75;;;5.40;37.23
74552;BME280;63025;55.472;38.432;2023-03-01T09:18:16;99571.06;;;5.54;36.83
74552;BME280;63025;55.472;38.432;2023-03-01T09:20:42;99570.72;;;6.21;36.39
74552;BME280;63025;55.472;38.432;2023-03-01T09:23:08;99558.19;;;6.49;35.77
74552;BME280;63025;55.472;38.432;2023-03-01T09:25:34;99555.53;;;6.56;35.25
74552;BME280;63025;55.472;38.432;2023-03-01T09:28:00;99548.06;;;5.89;35.56
74552;BME280;63025;55.472;38.432;2023-03-01T09:30:26;99554.09;;;5.62;36.19
74552;BME280;63025;55.472;38.432;2023-03-01T09:32:52;99554.72;;;5.42;35.95
74552;BME280;63025;55.472;38.432;2023-03-01T09:35:18;99548.50;;;4.70;36.68
74552;BME280;63025;55.472;38.432;2023-03-01T09:37:45;99558.03;;;5.08;37.05
74552;BME280;63025;55.472;38.432;2023-03-01T09:40:15;99554.53;;;5.44;36.82
74552;BME280;63025;55.472;38.432;2023-03-01T09:43:02;99550.88;;;5.87;36.16
74552;BME280;63025;55.472;38.432;2023-03-01T09:45:35;99556.31;;;5.37;36.70
74552;BME280;63025;55.472;38.432;2023-03-01T09:48:05;99560.00;;;5.36;36.32
74552;BME280;63025;55.472;38.432;2023-03-01T09:50:36;99552.34;;;5.33;36.73
74552;BME280;63025;55.472;38.432;2023-03-01T09:53:09;99554.53;;;4.93;36.90
74552;BME280;63025;55.472;38.432;2023-03-01T09:55:41;99555.44;;;5.15;36.93
74552;BME280;63025;55.472;38.432;2023-03-01T10:01:33;99564.25;;;5.15;37.54
74552;BME280;63025;55.472;38.432;2023-03-01T10:04:08;99558.56;;;4.30;37.76
74552;BME280;63025;55.472;38.432;2023-03-01T10:06:37;99568.59;;;4.58;38.31
74552;BME280;63025;55.472;38.432;2023-03-01T10:09:13;99562.00;;;5.34;37.83
74552;BME280;63025;55.472;38.432;2023-03-01T10:11:54;99567.19;;;4.32;38.12
74552;BME280;63025;55.472;38.432;2023-03-01T10:17:24;99541.19;;;5.23;37.87
74552;BME280;63025;55.472;38.432;2023-03-01T10:19:52;99556.06;;;5.89;36.81
74552;BME280;63025;55.472;38.432;2023-03-01T10:22:22;99555.44;;;6.71;36.15
74552;BME280;63025;55.472;38.432;2023-03-01T10:24:51;99564.31;;;7.86;34.38
74552;BME280;63025;55.472;38.432;2023-03-01T10:30:02;99555.44;;;7.66;32.44
74552;BME280;63025;55.472;38.432;2023-03-01T10:32:31;99554.69;;;8.51;31.50
74552;BME280;63025;55.472;38.432;2023-03-01T10:34:57;99557.97;;;8.46;32.18
74552;BME280;63025;55.472;38.432;2023-03-01T10:37:23;99557.47;;;8.82;31.64
74552;BME280;63025;55.472;38.432;2023-03-01T10:40:06;99555.47;;;8.71;32.02
74552;BME280;63025;55.472;38.432;2023-03-01T10:42:36;99569.25;;;8.62;32.15
74552;BME280;63025;55.472;38.432;2023-03-01T10:45:37;99564.13;;;8.67;31.89
74552;BME280;63025;55.472;38.432;2023-03-01T10:50:40;99556.94;;;8.41;32.09
74552;BME280;63025;55.472;38.432;2023-03-01T10:53:26;99566.78;;;7.88;31.94
74552;BME280;63025;55.472;38.432;2023-03-01T10:56:06;99576.16;;;7.03;32.84
74552;BME280;63025;55.472;38.432;2023-03-01T10:58:33;99572.47;;;5.93;34.07
74552;BME280;63025;55.472;38.432;2023-03-01T11:01:06;99579.91;;;6.46;33.85
74552;BME280;63025;55.472;38.432;2023-03-01T11:03:37;99562.81;;;7.70;32.92
74552;BME280;63025;55.472;38.432;2023-03-01T11:06:19;99586.06;;;7.09;33.10
74552;BME280;63025;55.472;38.432;2023-03-01T11:08:48;99587.22;;;5.88;34.07
74552;BME280;63025;55.472;38.432;2023-03-01T11:11:26;99591.25;;;5.27;34.31
74552;BME280;63025;55.472;38.432;2023-03-01T11:16:35;99600.41;;;3.45;37.18
74552;BME280;63025;55.472;38.432;2023-03-01T11:21:41;99594.22;;;3.22;37.92
74552;BME280;63025;55.472;38.432;2023-03-01T11:24:12;99614.06;;;2.95;38.99
74552;BME280;63025;55.472;38.432;2023-03-01T11:26:41;99612.97;;;2.73;39.20
74552;BME280;63025;55.472;38.432;2023-03-01T11:29:35;99615.31;;;2.60;40.04
74552;BME280;63025;55.472;38.432;2023-03-01T11:32:07;99604.34;;;2.79;40.75
74552;BME280;63025;55.472;38.432;2023-03-01T11:40:50;99615.59;;;2.89;39.95
74552;BME280;63025;55.472;38.432;2023-03-01T11:43:29;99626.34;;;2.96;39.46
74552;BME280;63025;55.472;38.432;2023-03-01T11:46:15;99604.13;;;3.36;39.37
74552;BME280;63025;55.472;38.432;2023-03-01T12:02:16;99590.06;;;5.15;36.98
74552;BME280;63025;55.472;38.432;2023-03-01T12:10:28;99601.28;;;4.14;37.91
74552;BME280;63025;55.472;38.432;2023-03-01T12:15:39;99611.19;;;3.75;38.14
74552;BME280;63025;55.472;38.432;2023-03-01T12:23:49;99618.81;;;3.16;40.20
74552;BME280;63025;55.472;38.432;2023-03-01T12:32:13;99636.91;;;1.92;41.38
74552;BME280;63025;55.472;38.432;2023-03-01T12:40:26;99633.25;;;1.85;42.16
74552;BME280;63025;55.472;38.432;2023-03-01T12:50:51;99619.03;;;2.10;42.61
74552;BME280;63025;55.472;38.432;2023-03-01T12:56:00;99626.81;;;2.44;41.52
74552;BME280;63025;55.472;38.432;2023-03-01T13:09:13;99616.72;;;2.15;41.35
74552;BME280;63025;55.472;38.432;2023-03-01T13:11:42;99622.31;;;1.64;43.21
74552;BME280;63025;55.472;38.432;2023-03-01T13:16:47;99621.84;;;1.26;43.56
74552;BME280;63025;55.472;38.432;2023-03-01T13:19:28;99622.81;;;1.17;44.82
74552;BME280;63025;55.472;38.432;2023-03-01T13:22:31;99632.66;;;1.41;44.64
74552;BME280;63025;55.472;38.432;2023-03-01T13:27:39;99605.13;;;1.84;43.19
74552;BME280;63025;55.472;38.432;2023-03-01T13:32:51;99608.22;;;1.05;43.73
74552;BME280;63025;55.472;38.432;2023-03-01T13:37:43;99596.00;;;1.12;44.65
74552;BME280;63025;55.472;38.432;2023-03-01T13:42:45;99605.59;;;0.45;45.40
74552;BME280;63025;55.472;38.432;2023-03-01T13:47:50;99617.94;;;-0.25;46.82
74552;BME280;63025;55.472;38.432;2023-03-01T13:50:21;99608.97;;;-0.32;47.02
74552;BME280;63025;55.472;38.432;2023-03-01T13:52:52;99607.28;;;-0.33;47.81
74552;BME280;63025;55.472;38.432;2023-03-01T13:55:26;99603.22;;;-0.45;47.65
74552;BME280;63025;55.472;38.432;2023-03-01T13:58:01;99599.53;;;-0.52;47.60
74552;BME280;63025;55.472;38.432;2023-03-01T14:00:38;99594.13;;;-0.60;48.13
74552;BME280;63025;55.472;38.432;2023-03-01T14:03:19;99595.63;;;-0.76;48.38
74552;BME280;63025;55.472;38.432;2023-03-01T14:08:26;99595.22;;;-0.35;48.97
74552;BME280;63025;55.472;38.432;2023-03-01T14:10:54;99591.91;;;-0.55;48.74
74552;BME280;63025;55.472;38.432;2023-03-01T14:19:02;99596.16;;;-0.72;49.96
74552;BME280;63025;55.472;38.432;2023-03-01T14:21:31;99585.16;;;-0.85;50.16
74552;BME280;63025;55.472;38.432;2023-03-01T14:23:57;99594.94;;;-0.95;50.40
74552;BME280;63025;55.472;38.432;2023-03-01T14:26:24;99594.00;;;-1.04;50.77
74552;BME280;63025;55.472;38.432;2023-03-01T14:28:50;99600.81;;;-1.11;50.88
74552;BME280;63025;55.472;38.432;2023-03-01T14:31:42;99598.97;;;-1.28;50.96
74552;BME280;63025;55.472;38.432;2023-03-01T14:34:19;99588.56;;;-1.30;51.18
74552;BME280;63025;55.472;38.432;2023-03-01T14:36:45;99580.97;;;-1.42;51.10
74552;BME280;63025;55.472;38.432;2023-03-01T14:39:24;99590.84;;;-1.54;51.62
74552;BME280;63025;55.472;38.432;2023-03-01T14:41:52;99600.41;;;-1.53;52.12
74552;BME280;63025;55.472;38.432;2023-03-01T14:44:22;99591.03;;;-1.65;52.12
74552;BME280;63025;55.472;38.432;2023-03-01T14:46:54;99600.72;;;-1.66;52.96
74552;BME280;63025;55.472;38.432;2023-03-01T14:49:29;99596.59;;;-1.68;52.95
74552;BME280;63025;55.472;38.432;2023-03-01T14:52:04;99590.94;;;-1.83;53.70
74552;BME280;63025;55.472;38.432;2023-03-01T14:54:42;99583.63;;;-1.89;54.17
74552;BME280;63025;55.472;38.432;2023-03-01T14:57:19;99602.88;;;-1.98;54.72
74552;BME280;63025;55.472;38.432;2023-03-01T14:59:48;99601.22;;;-1.99;54.89
74552;BME280;63025;55.472;38.432;2023-03-01T15:02:18;99596.50;;;-2.05;54.99
74552;BME280;63025;55.472;38.432;2023-03-01T15:04:46;99595.28;;;-2.11;54.84
74552;BME280;63025;55.472;38.432;2023-03-01T15:07:14;99605.09;;;-2.13;55.08